EDDHEDDN

Guest
Details From EDDH - Hamburg
To EDDN - Nurnberg
Flight Number -
Tags Generated
Created
Modified
Stats Distance 253 nm / 468 km
Max Altitude 0 ft / 0 m
Waypoints 3
Social Downloads 3
Likes 0
Share VATSIM

Download

Looking for another format? Having issues loading an existing format? Contact us
Advertisement - Login to hide

Notes

Generated

Route

EDDH R2145 EDDN

ID Type Via Altitude Latitude Longitude Leg Dist Tot Dist Heading (true) Name
O EDDH APT - 0 ft / 0 m 53.65441˚ 9.97521˚ - 0 nm - -
R2145 FIX - 0 ft / 0 m 49.50055˚ 11.05917˚ 252 nm 252 nm 170° / 171° -
O EDDN APT - 0 ft / 0 m 49.50055˚ 11.05918˚ 0 nm 252 nm 68° / 68° -

Altitude Profile

Advertisement - Login to hide

Weather


0- 5 10 15 20 25 30 35+ Temperature / ° C

Clouds and Precipitation
Forecast for 2018-05-25 12:00 UTC. Updated 4 hours ago

Ground ~20,000 ft ~40,000 ft Winds

EDDH

Details ICAO EDDH (HAM)
Name Hamburg
Region Germany - Civil
Timezone Europe/Berlin (UTC+2.0)
Stats Elevation 53 ft / 16 m (AMSL)
Location 53.633665° 9.985235°
Runways 2
Magnetic Variation 2.848° E

METAR

EDDH 251450Z 04015KT 010V070 CAVOK 23/08 Q1021 TEMPO 06015G25KT

Decode

TAF

TAF EDDH 251100Z 2512/2618 07014KT CAVOK TEMPO 2512/2517 08015G25KT BECMG 2518/2520 06005KT BECMG 2608/2610 06010KT

Decode

Departure Runways

ID Width Length Bearing (true) Bearing (mag) Surface Threshold Offset Overrun Length
05 151 ft / 46 m 10,647 ft / 3,245 m 50.18° 47.33° Asphalt 978 ft / 298 m 194 ft / 59 m
15 151 ft / 46 m 12,013 ft / 3,662 m 152.89° 150.04° Asphalt 0 ft / 0 m 194 ft / 59 m
23 151 ft / 46 m 10,647 ft / 3,245 m 230.22° 227.37° Asphalt 509 ft / 155 m 240 ft / 73 m
33 151 ft / 46 m 12,013 ft / 3,662 m 332.91° 330.06° Asphalt 1,463 ft / 446 m 164 ft / 50 m

EDDN

Details ICAO EDDN (NUE)
Name Nurnberg
Region Germany - Civil
Timezone Europe/Berlin (UTC+2.0)
Stats Elevation 1,045 ft / 319 m (AMSL)
Location 49.498744° 11.077580°
Runways 1
Magnetic Variation 3.075° E

METAR

EDDN 251450Z 06006KT 020V140 9999 FEW040CB SCT110 23/14 Q1018 RETS NOSIG

Decode

TAF

TAF EDDN 251100Z 2512/2612 VRB03KT 9999 SCT030 TEMPO 2512/2518 05006KT PROB40 TEMPO 2512/2516 05015G25KT TSRA SCT020 BKN030CB BECMG 2607/2609 10005KT

Decode

Destination Runways

ID Width Length Bearing (true) Bearing (mag) Surface Threshold Offset Overrun Length
10 148 ft / 45 m 8,819 ft / 2,688 m 98.60° 95.53° Asphalt 0 ft / 0 m 0 ft / 0 m
28 148 ft / 45 m 8,819 ft / 2,688 m 278.63° 275.56° Asphalt 0 ft / 0 m 0 ft / 0 m

Approach Navaids

Runway Type Ident Frequency Range Bearing (true) Bearing (mag) Slope Elevation
10 Localiser INUE 111.30 MHz 18 nm / 33 km 98.64° 95.56° - 1,046 ft / 319 m (AMSL)
10 Glidescope INUE 111.30 MHz 10 nm / 19 km 98.61° 95.54° 3.00° 1,022 ft / 312 m (AMSL)
28 Localiser INUW 109.10 MHz 23 nm / 43 km 278.59° 275.51° - 1,122 ft / 342 m (AMSL)
28 Glidescope INUW 109.10 MHz 10 nm / 19 km 278.62° 275.54° 3.00° 1,046 ft / 319 m (AMSL)

Popular Alternatives